createdAt,value
2022-12-18T00:00:43.860Z,42.46
2022-12-18T00:03:47.047Z,42.38
2022-12-18T00:06:50.202Z,42.72
2022-12-18T00:09:52.970Z,42.46
2022-12-18T00:12:55.734Z,42.65
2022-12-18T00:16:03.111Z,42.63
2022-12-18T00:19:06.643Z,42.80
2022-12-18T00:22:09.421Z,42.73
2022-12-18T00:25:12.232Z,42.65
2022-12-18T00:28:15.000Z,42.72
2022-12-18T00:31:21.630Z,42.71
2022-12-18T00:34:24.496Z,42.76
2022-12-18T00:37:27.251Z,42.85
2022-12-18T00:40:30.090Z,42.82
2022-12-18T00:43:34.581Z,42.53
2022-12-18T00:46:38.759Z,42.79
2022-12-18T00:49:41.490Z,42.90
2022-12-18T00:52:44.707Z,42.76
2022-12-18T00:55:47.826Z,42.84
2022-12-18T00:58:50.917Z,42.72
2022-12-18T01:01:55.412Z,42.93
2022-12-18T01:04:58.301Z,42.89
2022-12-18T01:08:01.556Z,43.02
2022-12-18T01:11:12.770Z,42.84
2022-12-18T01:14:15.566Z,42.86
2022-12-18T01:17:19.761Z,42.90
2022-12-18T01:20:22.574Z,42.82
2022-12-18T01:23:27.506Z,42.73
2022-12-18T01:26:30.981Z,42.65
2022-12-18T01:29:33.774Z,42.60
2022-12-18T01:32:37.964Z,42.78
2022-12-18T01:35:42.702Z,42.80
2022-12-18T01:38:45.535Z,42.93
2022-12-18T01:42:05.231Z,42.74
2022-12-18T01:45:24.352Z,42.59
2022-12-18T01:48:28.554Z,42.66
2022-12-18T01:51:32.040Z,42.50
2022-12-18T01:54:34.807Z,42.63
2022-12-18T01:57:37.887Z,42.62
2022-12-18T02:00:41.102Z,42.65
2022-12-18T02:03:46.454Z,42.53
2022-12-18T02:06:53.242Z,42.65
2022-12-18T02:09:59.332Z,42.68
2022-12-18T02:13:05.062Z,42.46
2022-12-18T02:16:13.180Z,42.86
2022-12-18T02:19:23.862Z,42.81
2022-12-18T02:22:31.944Z,42.87
2022-12-18T02:25:43.029Z,42.79
2022-12-18T02:28:49.037Z,42.96
2022-12-18T02:31:54.367Z,43.03
2022-12-18T02:34:58.630Z,42.60
2022-12-18T02:38:02.167Z,43.18
2022-12-18T02:41:05.631Z,43.40
2022-12-18T02:44:11.034Z,43.43
2022-12-18T02:47:14.770Z,43.51
2022-12-18T02:50:21.183Z,43.46
2022-12-18T02:53:27.597Z,43.35
2022-12-18T02:56:33.664Z,43.44
2022-12-18T02:59:41.742Z,43.34
2022-12-18T03:02:48.587Z,43.22
2022-12-18T03:05:53.057Z,42.76
2022-12-18T03:08:59.858Z,42.70
2022-12-18T03:12:23.146Z,42.54
2022-12-18T03:15:28.921Z,42.18
2022-12-18T03:18:35.720Z,42.05
2022-12-18T03:21:41.044Z,41.91
2022-12-18T03:24:44.010Z,41.91
2022-12-18T03:27:48.650Z,41.63
2022-12-18T03:30:55.182Z,41.55
2022-12-18T03:34:00.007Z,41.51
2022-12-18T03:37:05.980Z,41.52
2022-12-18T03:40:09.241Z,41.38
2022-12-18T03:43:19.010Z,41.34
2022-12-18T03:46:28.235Z,41.29
2022-12-18T03:49:34.642Z,41.32
2022-12-18T03:52:39.273Z,41.07
2022-12-18T03:55:42.467Z,41.31
2022-12-18T03:58:46.282Z,41.20
2022-12-18T04:01:53.519Z,41.25
2022-12-18T04:04:59.771Z,41.16
2022-12-18T04:08:03.235Z,41.22
2022-12-18T04:11:06.145Z,41.22
2022-12-18T04:14:11.853Z,41.14
2022-12-18T04:17:18.687Z,41.04
2022-12-18T04:20:21.657Z,41.14
2022-12-18T04:23:24.462Z,40.93
2022-12-18T04:26:27.222Z,40.96
2022-12-18T04:29:30.208Z,40.84
2022-12-18T04:32:35.299Z,40.77
2022-12-18T04:35:38.087Z,40.88
2022-12-18T04:38:40.860Z,40.81
2022-12-18T04:41:43.602Z,40.89
2022-12-18T04:44:46.400Z,40.75
2022-12-18T04:47:50.568Z,40.67
2022-12-18T04:50:53.302Z,40.74
2022-12-18T04:53:56.109Z,40.82
2022-12-18T04:56:58.872Z,40.59
2022-12-18T05:00:01.633Z,40.62
2022-12-18T05:03:05.896Z,40.69
2022-12-18T05:06:09.196Z,40.70
2022-12-18T05:09:11.962Z,40.60
2022-12-18T05:12:15.748Z,40.65
2022-12-18T05:15:18.586Z,40.60
2022-12-18T05:18:22.704Z,40.62
2022-12-18T05:21:25.500Z,40.86
2022-12-18T05:24:28.388Z,40.51
2022-12-18T05:27:31.113Z,40.49
2022-12-18T05:30:33.933Z,40.66
2022-12-18T05:33:38.472Z,40.47
2022-12-18T05:36:41.579Z,40.61
2022-12-18T05:39:44.784Z,40.71
2022-12-18T05:42:47.500Z,40.60
2022-12-18T05:45:50.738Z,40.56
2022-12-18T05:48:54.856Z,40.35
2022-12-18T05:51:57.661Z,40.32
2022-12-18T05:55:01.064Z,40.60
2022-12-18T05:58:04.406Z,40.26
2022-12-18T06:01:11.572Z,40.34
2022-12-18T06:04:15.742Z,40.33
2022-12-18T06:07:18.653Z,40.19
2022-12-18T06:10:21.481Z,40.23
2022-12-18T06:13:24.268Z,40.28
2022-12-18T06:16:27.275Z,40.30
2022-12-18T06:19:31.542Z,40.44
2022-12-18T06:22:34.564Z,40.22
2022-12-18T06:25:39.405Z,40.10
2022-12-18T06:28:42.192Z,40.06
2022-12-18T06:31:45.037Z,40.01
2022-12-18T06:34:49.183Z,40.03
2022-12-18T06:37:52.003Z,39.96
2022-12-18T06:40:55.201Z,40.26
2022-12-18T06:44:00.023Z,40.01
2022-12-18T06:47:03.224Z,40.03
2022-12-18T06:50:07.958Z,39.90
2022-12-18T06:53:10.761Z,40.05
2022-12-18T06:56:13.612Z,39.98
2022-12-18T06:59:16.656Z,40.35
2022-12-18T07:02:19.786Z,40.39
2022-12-18T07:05:24.033Z,40.44
2022-12-18T07:08:26.820Z,40.45
2022-12-18T07:11:29.665Z,40.51
2022-12-18T07:14:32.437Z,40.53
2022-12-18T07:17:35.225Z,40.84
2022-12-18T07:20:39.390Z,40.72
2022-12-18T07:23:42.549Z,40.71
2022-12-18T07:26:47.706Z,40.79
2022-12-18T07:29:50.718Z,40.86
2022-12-18T07:32:53.478Z,40.92
2022-12-18T07:35:57.614Z,40.83
2022-12-18T07:39:00.361Z,40.90
2022-12-18T07:42:20.948Z,40.82
2022-12-18T07:45:24.241Z,40.34
2022-12-18T07:48:27.397Z,40.31
2022-12-18T07:51:31.559Z,40.28
2022-12-18T07:54:34.379Z,40.29
2022-12-18T07:57:55.456Z,40.16
2022-12-18T08:01:04.618Z,40.24
2022-12-18T08:04:07.430Z,39.95
2022-12-18T08:07:11.553Z,39.95
2022-12-18T08:10:14.598Z,39.88
2022-12-18T08:13:17.309Z,39.97
2022-12-18T08:16:20.861Z,39.72
2022-12-18T08:19:23.696Z,39.81
2022-12-18T08:22:27.954Z,39.75
2022-12-18T08:25:30.704Z,39.84
2022-12-18T08:28:33.465Z,39.81
2022-12-18T08:31:36.343Z,39.77
2022-12-18T08:34:39.206Z,39.66
2022-12-18T08:37:43.316Z,39.73
2022-12-18T08:40:46.500Z,39.57
2022-12-18T08:44:06.967Z,39.58
2022-12-18T08:47:10.177Z,39.51
2022-12-18T08:50:14.057Z,40.01
2022-12-18T08:53:18.410Z,39.65
2022-12-18T08:56:21.611Z,39.86
2022-12-18T08:59:24.645Z,39.69
2022-12-18T09:02:27.641Z,40.00
2022-12-18T09:05:30.620Z,39.71
2022-12-18T09:08:37.720Z,39.38
2022-12-18T09:11:40.921Z,39.50
2022-12-18T09:14:43.701Z,39.65
2022-12-18T09:17:46.422Z,39.66
2022-12-18T09:20:51.252Z,39.47
2022-12-18T09:23:56.686Z,39.43
2022-12-18T09:27:00.431Z,39.40
2022-12-18T09:30:03.439Z,39.40
2022-12-18T09:33:06.291Z,39.53
2022-12-18T09:36:11.289Z,39.51
2022-12-18T09:39:15.429Z,39.28
2022-12-18T09:42:21.963Z,39.50
2022-12-18T09:45:24.840Z,39.59
2022-12-18T09:48:29.381Z,39.40
2022-12-18T09:51:35.773Z,39.28
2022-12-18T09:54:44.627Z,39.30
2022-12-18T09:57:49.871Z,39.13
2022-12-18T10:00:53.686Z,39.37
2022-12-18T10:03:57.228Z,39.21
2022-12-18T10:07:09.116Z,39.14
2022-12-18T10:10:17.803Z,39.10
2022-12-18T10:13:25.241Z,39.14
2022-12-18T10:16:32.056Z,38.99
2022-12-18T10:19:41.816Z,39.15
2022-12-18T10:22:48.131Z,39.21
2022-12-18T10:25:55.934Z,39.10
2022-12-18T10:29:05.309Z,38.81
2022-12-18T10:32:09.162Z,39.13
2022-12-18T10:35:17.655Z,38.94
2022-12-18T10:38:25.245Z,39.04
2022-12-18T10:41:29.763Z,38.98
2022-12-18T10:44:32.541Z,38.97
2022-12-18T10:47:36.305Z,38.96
2022-12-18T10:54:03.682Z,39.15
2022-12-18T10:57:18.630Z,39.00
2022-12-18T11:00:29.111Z,39.13
2022-12-18T11:03:33.821Z,39.09
2022-12-18T11:06:52.828Z,38.94
2022-12-18T11:10:05.089Z,38.92
2022-12-18T11:13:13.879Z,38.96
2022-12-18T11:16:20.484Z,38.80
2022-12-18T11:19:28.464Z,38.93
2022-12-18T11:22:34.848Z,38.80
2022-12-18T11:25:37.703Z,38.84
2022-12-18T11:28:43.814Z,38.85
2022-12-18T11:31:48.559Z,38.79
2022-12-18T11:34:58.882Z,38.78
2022-12-18T11:38:05.573Z,39.01
2022-12-18T11:41:16.611Z,38.82
2022-12-18T11:44:24.996Z,38.88
2022-12-18T11:47:31.470Z,38.89
2022-12-18T11:50:40.241Z,38.96
2022-12-18T11:53:43.014Z,38.81
2022-12-18T11:56:48.274Z,38.75
2022-12-18T11:59:58.054Z,38.64
2022-12-18T12:03:20.426Z,38.83
2022-12-18T12:06:31.157Z,38.91
2022-12-18T12:09:40.030Z,38.79
2022-12-18T12:12:52.338Z,38.77
2022-12-18T12:16:04.290Z,38.77
2022-12-18T12:19:15.773Z,38.69
2022-12-18T12:22:22.961Z,38.85
2022-12-18T12:25:33.161Z,38.83
2022-12-18T12:28:53.370Z,38.65
2022-12-18T12:32:04.733Z,38.78
2022-12-18T12:35:15.415Z,38.93
2022-12-18T12:38:20.298Z,38.67
2022-12-18T12:41:43.346Z,38.85
2022-12-18T12:44:55.782Z,38.71
2022-12-18T12:48:01.654Z,38.59
2022-12-18T12:51:06.332Z,38.83
2022-12-18T12:54:15.240Z,38.62
2022-12-18T12:57:25.544Z,38.56
2022-12-18T13:00:33.318Z,38.66
2022-12-18T13:03:44.007Z,38.58
2022-12-18T13:06:51.388Z,38.51
2022-12-18T13:10:13.343Z,37.86
2022-12-18T13:13:23.247Z,38.87
2022-12-18T13:16:29.484Z,38.83
2022-12-18T13:19:34.726Z,38.54
2022-12-18T13:22:38.928Z,39.10
2022-12-18T13:25:41.774Z,39.16
2022-12-18T13:28:55.093Z,39.43
2022-12-18T13:32:02.160Z,39.79
2022-12-18T13:35:24.356Z,39.68
2022-12-18T13:38:35.966Z,39.76
2022-12-18T13:41:38.775Z,39.45
2022-12-18T13:44:42.459Z,39.56
2022-12-18T13:47:45.498Z,39.71
2022-12-18T13:50:51.091Z,39.91
2022-12-18T13:53:56.569Z,40.52
2022-12-18T13:56:59.442Z,40.34
2022-12-18T14:00:26.780Z,40.06
2022-12-18T14:03:31.633Z,40.30
2022-12-18T14:06:34.572Z,40.21
2022-12-18T14:09:42.295Z,40.32
2022-12-18T14:13:01.988Z,40.23
2022-12-18T14:16:08.304Z,40.23
2022-12-18T14:19:15.321Z,40.21
2022-12-18T14:22:19.930Z,40.59
2022-12-18T14:25:25.012Z,40.78
2022-12-18T14:28:27.870Z,40.81
2022-12-18T14:31:31.561Z,41.43
2022-12-18T14:34:34.349Z,41.50
2022-12-18T14:37:39.756Z,41.14
2022-12-18T14:40:44.047Z,41.30
2022-12-18T14:43:47.937Z,41.21
2022-12-18T14:46:52.483Z,41.11
2022-12-18T14:49:56.094Z,41.31
2022-12-18T14:52:58.873Z,41.20
2022-12-18T14:56:03.242Z,41.13
2022-12-18T14:59:07.159Z,41.17
2022-12-18T15:02:17.850Z,40.73
2022-12-18T15:05:26.396Z,41.22
2022-12-18T15:08:31.114Z,41.28
2022-12-18T15:11:46.217Z,41.18
2022-12-18T15:14:49.005Z,41.20
2022-12-18T15:17:58.547Z,41.18
2022-12-18T15:21:08.254Z,41.17
2022-12-18T15:24:18.782Z,41.17
2022-12-18T15:27:25.072Z,41.20
2022-12-18T15:30:28.910Z,41.25
2022-12-18T15:33:34.213Z,41.17
2022-12-18T15:36:37.541Z,41.11
2022-12-18T15:39:43.285Z,41.09
2022-12-18T15:43:05.221Z,41.10
2022-12-18T15:46:08.896Z,41.12
2022-12-18T15:49:11.686Z,41.16
2022-12-18T15:52:26.952Z,41.03
2022-12-18T15:55:47.743Z,41.15
2022-12-18T15:58:51.879Z,40.97
2022-12-18T16:01:56.275Z,40.93
2022-12-18T16:04:59.211Z,40.81
2022-12-18T16:08:02.030Z,40.48
2022-12-18T16:11:04.865Z,40.26
2022-12-18T16:14:20.527Z,40.05
2022-12-18T16:17:23.375Z,39.92
2022-12-18T16:20:27.163Z,39.91
2022-12-18T16:23:31.980Z,39.72
2022-12-18T16:26:34.747Z,39.72
2022-12-18T16:29:38.973Z,39.12
2022-12-18T16:32:41.807Z,39.29
2022-12-18T16:35:44.543Z,39.09
2022-12-18T16:38:47.329Z,39.01
2022-12-18T16:41:50.724Z,39.13
2022-12-18T16:44:54.878Z,39.15
2022-12-18T16:47:57.639Z,38.98
2022-12-18T16:51:02.434Z,38.99
2022-12-18T16:54:09.730Z,39.03
2022-12-18T16:57:16.542Z,38.91
2022-12-18T17:00:20.942Z,39.54
2022-12-18T17:03:29.764Z,39.22
2022-12-18T17:06:33.426Z,39.40
2022-12-18T17:09:36.313Z,39.32
2022-12-18T17:12:39.095Z,39.33
2022-12-18T17:15:43.309Z,39.33
2022-12-18T17:18:46.415Z,39.15
2022-12-18T17:21:51.260Z,39.18
2022-12-18T17:24:54.022Z,39.19
2022-12-18T17:27:56.778Z,39.24
2022-12-18T17:31:01.192Z,38.92
2022-12-18T17:34:04.753Z,38.93
2022-12-18T17:37:07.514Z,39.00
2022-12-18T17:40:11.663Z,38.89
2022-12-18T17:43:14.495Z,39.03
2022-12-18T17:46:18.852Z,38.89
2022-12-18T17:49:21.798Z,38.95
2022-12-18T17:52:24.518Z,38.92
2022-12-18T17:55:28.373Z,38.62
2022-12-18T17:58:32.492Z,38.79
2022-12-18T18:01:42.414Z,38.98
2022-12-18T18:04:47.043Z,38.68
2022-12-18T18:07:50.783Z,38.71
2022-12-18T18:10:55.786Z,38.68
2022-12-18T18:14:04.668Z,38.63
2022-12-18T18:17:08.829Z,38.50
2022-12-18T18:20:12.390Z,38.62
2022-12-18T18:23:15.450Z,38.63
2022-12-18T18:26:18.227Z,38.75
2022-12-18T18:29:23.050Z,38.79
2022-12-18T18:32:27.508Z,38.93
2022-12-18T18:35:53.279Z,38.74
2022-12-18T18:38:53.842Z,38.72
2022-12-18T18:41:56.578Z,38.67
2022-12-18T18:45:05.205Z,38.66
2022-12-18T18:48:09.425Z,38.55
2022-12-18T18:51:13.048Z,38.67
2022-12-18T18:54:20.992Z,38.66
2022-12-18T18:57:28.720Z,38.93
2022-12-18T19:00:33.085Z,38.96
2022-12-18T19:03:38.822Z,39.08
2022-12-18T19:06:42.797Z,39.22
2022-12-18T19:09:51.923Z,39.15
2022-12-18T19:13:12.143Z,39.41
2022-12-18T19:16:15.149Z,39.44
2022-12-18T19:19:23.375Z,39.50
2022-12-18T19:22:26.522Z,39.57
2022-12-18T19:25:40.548Z,39.58
2022-12-18T19:28:44.667Z,39.63
2022-12-18T19:31:47.627Z,39.68
2022-12-18T19:34:51.913Z,39.82
2022-12-18T19:37:55.296Z,39.85
2022-12-18T19:40:59.950Z,39.82
2022-12-18T19:44:08.337Z,39.81
2022-12-18T19:47:11.588Z,39.98
2022-12-18T19:50:17.126Z,39.95
2022-12-18T19:53:21.632Z,39.59
2022-12-18T19:56:27.005Z,39.83
2022-12-18T19:59:31.107Z,40.08
2022-12-18T20:02:37.481Z,40.05
2022-12-18T20:05:43.462Z,40.06
2022-12-18T20:08:48.815Z,40.01
2022-12-18T20:11:52.685Z,40.02
2022-12-18T20:14:55.495Z,40.08
2022-12-18T20:17:58.283Z,40.18
2022-12-18T20:21:03.437Z,40.33
2022-12-18T20:24:07.381Z,40.30
2022-12-18T20:27:15.228Z,40.13
2022-12-18T20:30:20.147Z,40.43
2022-12-18T20:33:22.917Z,40.33
2022-12-18T20:36:28.183Z,40.54
2022-12-18T20:39:32.183Z,40.47
2022-12-18T20:42:35.497Z,40.56
2022-12-18T20:45:40.269Z,40.37
2022-12-18T20:48:45.837Z,40.19
2022-12-18T20:51:52.484Z,40.02
2022-12-18T20:54:55.241Z,39.75
2022-12-18T20:57:59.883Z,39.74
2022-12-18T21:01:06.701Z,39.38
2022-12-18T21:04:09.515Z,39.12
2022-12-18T21:07:13.707Z,39.30
2022-12-18T21:10:16.461Z,39.47
2022-12-18T21:13:20.569Z,39.69
2022-12-18T21:16:25.534Z,39.28
2022-12-18T21:19:30.368Z,39.68
2022-12-18T21:22:39.312Z,40.00
2022-12-18T21:25:42.162Z,40.08
2022-12-18T21:28:44.922Z,40.34
2022-12-18T21:31:47.938Z,40.17
2022-12-18T21:34:50.750Z,40.29
2022-12-18T21:37:54.867Z,40.12
2022-12-18T21:40:57.629Z,40.32
2022-12-18T21:44:08.731Z,40.26
2022-12-18T21:47:15.169Z,40.56
2022-12-18T21:50:25.251Z,40.23
2022-12-18T21:53:29.400Z,40.04
2022-12-18T21:56:43.982Z,40.16
2022-12-18T21:59:46.953Z,39.96
2022-12-18T22:03:15.440Z,39.79
2022-12-18T22:06:13.142Z,39.91
2022-12-18T22:09:18.494Z,39.68
2022-12-18T22:15:51.892Z,39.47
2022-12-18T22:18:55.056Z,39.50
2022-12-18T22:21:57.800Z,39.45
2022-12-18T22:25:00.782Z,39.45
2022-12-18T22:28:23.626Z,39.22
2022-12-18T22:31:27.756Z,39.20
2022-12-18T22:34:36.338Z,38.95
2022-12-18T22:37:39.491Z,39.39
2022-12-18T22:40:42.353Z,39.28
2022-12-18T22:43:45.395Z,39.16
2022-12-18T22:46:56.223Z,39.34
2022-12-18T22:50:09.809Z,39.13
2022-12-18T22:53:12.573Z,39.33
2022-12-18T22:56:21.310Z,39.02
2022-12-18T22:59:24.472Z,39.12
2022-12-18T23:02:28.685Z,39.06
2022-12-18T23:05:31.963Z,39.03
2022-12-18T23:08:35.269Z,39.07
2022-12-18T23:11:38.052Z,39.05
2022-12-18T23:14:40.811Z,38.92
2022-12-18T23:17:44.974Z,38.82
2022-12-18T23:20:47.712Z,38.78
2022-12-18T23:23:51.663Z,38.88
2022-12-18T23:26:54.439Z,38.88
2022-12-18T23:29:57.178Z,38.80
2022-12-18T23:33:02.900Z,38.91
2022-12-18T23:36:06.365Z,38.82
2022-12-18T23:39:09.372Z,38.84
2022-12-18T23:42:12.141Z,38.58
2022-12-18T23:45:18.093Z,38.97
2022-12-18T23:48:22.626Z,38.97
2022-12-18T23:51:25.797Z,38.91
2022-12-18T23:54:32.910Z,39.27
2022-12-18T23:57:36.613Z,39.06
